Time;durP1;ratioP1;P1;durP2;ratioP2;P2;SDS_P1;SDS_P2;PMS_P1;PMS_P2;Temp;Humidity;BMP_temperature;BMP_pressure;BME280_temperature;BME280_humidity;BME280_pressure;Samples;Min_cycle;Max_cycle;Signal;HPM_P1;HPM_P2
2021/10/03 00:01:14;;;;;;;15.13;9.50;;;16.50;94.80;;;;;;5009929;28;20442;-70
2021/10/03 00:03:44;;;;;;;13.68;10.82;;;16.50;94.60;;;;;;5010782;28;20092;-68
2021/10/03 00:06:12;;;;;;;16.65;11.35;;;16.50;94.60;;;;;;5009367;28;20022;-68
2021/10/03 00:08:38;;;;;;;13.98;10.13;;;16.50;94.60;;;;;;5010335;28;20450;-68
2021/10/03 00:11:06;;;;;;;14.05;10.30;;;16.50;94.60;;;;;;5001573;28;20028;-68
2021/10/03 00:13:33;;;;;;;16.38;10.10;;;16.50;94.60;;;;;;5011586;28;20112;-68
2021/10/03 00:16:00;;;;;;;17.75;10.55;;;16.50;94.60;;;;;;5009118;28;20041;-68
2021/10/03 00:18:26;;;;;;;14.25;11.27;;;16.50;94.60;;;;;;4992112;28;20093;-68
2021/10/03 00:20:53;;;;;;;15.77;10.63;;;16.50;94.60;;;;;;5007631;28;20034;-68
2021/10/03 00:23:19;;;;;;;15.15;11.38;;;16.50;94.50;;;;;;4990377;28;20034;-68
2021/10/03 00:25:45;;;;;;;18.08;11.20;;;16.50;94.50;;;;;;5006462;28;20112;-68
2021/10/03 00:28:11;;;;;;;15.57;10.43;;;16.50;94.60;;;;;;4992114;28;20113;-68
2021/10/03 00:30:38;;;;;;;13.88;10.63;;;16.50;94.50;;;;;;5005427;28;20425;-68
2021/10/03 00:33:04;;;;;;;14.40;11.18;;;16.50;94.50;;;;;;4992910;28;20085;-68
2021/10/03 00:35:31;;;;;;;13.55;10.30;;;16.50;94.40;;;;;;5011467;28;20034;-68
2021/10/03 00:37:59;;;;;;;18.17;12.18;;;16.50;94.30;;;;;;5006809;28;20049;-67
2021/10/03 00:40:26;;;;;;;17.40;11.75;;;16.50;94.20;;;;;;5008310;28;20041;-68
2021/10/03 00:42:52;;;;;;;15.23;11.10;;;16.50;94.30;;;;;;4999456;28;20585;-68
2021/10/03 00:45:17;;;;;;;13.57;10.90;;;16.50;94.20;;;;;;4992183;28;20122;-68
2021/10/03 00:47:43;;;;;;;15.50;10.80;;;16.50;94.10;;;;;;5007309;28;20057;-68
2021/10/03 00:50:10;;;;;;;14.18;11.40;;;16.50;94.10;;;;;;5009204;28;20037;-68
2021/10/03 00:52:36;;;;;;;15.15;10.73;;;16.50;94.00;;;;;;5011963;28;20037;-68
2021/10/03 00:55:02;;;;;;;14.75;11.27;;;16.50;93.90;;;;;;5014230;28;20053;-68
2021/10/03 00:57:28;;;;;;;14.48;9.63;;;16.50;93.80;;;;;;5011916;28;20041;-67
2021/10/03 00:59:54;;;;;;;17.17;11.40;;;16.50;93.80;;;;;;5013515;28;20022;-67
2021/10/03 01:02:19;;;;;;;17.05;11.57;;;16.50;93.80;;;;;;4999942;28;20033;-67
2021/10/03 01:04:45;;;;;;;13.02;9.80;;;16.50;93.70;;;;;;5014540;28;20087;-68
2021/10/03 01:07:10;;;;;;;15.25;11.00;;;16.50;93.60;;;;;;5012954;28;20471;-68
2021/10/03 01:09:36;;;;;;;13.65;9.85;;;16.50;93.60;;;;;;5012869;28;20030;-67
2021/10/03 01:12:02;;;;;;;16.00;11.68;;;16.50;93.60;;;;;;5002940;28;20034;-67
2021/10/03 01:14:27;;;;;;;14.48;10.95;;;16.50;93.40;;;;;;5009906;28;20120;-68
2021/10/03 01:16:53;;;;;;;17.02;10.60;;;16.50;93.30;;;;;;5012377;28;20165;-67
2021/10/03 01:19:18;;;;;;;12.82;10.18;;;16.50;93.30;;;;;;5010525;28;20119;-68
2021/10/03 01:21:45;;;;;;;13.60;10.80;;;16.50;93.30;;;;;;5004762;28;20031;-68
2021/10/03 01:24:11;;;;;;;12.60;10.18;;;16.50;93.20;;;;;;5006598;28;20045;-68
2021/10/03 01:26:36;;;;;;;14.43;10.25;;;16.50;93.10;;;;;;5011910;28;20026;-67
2021/10/03 01:29:03;;;;;;;13.68;10.77;;;16.40;93.00;;;;;;5012720;28;20120;-67
2021/10/03 01:31:30;;;;;;;14.20;9.63;;;16.40;93.30;;;;;;5012237;28;20022;-67
2021/10/03 01:33:57;;;;;;;12.25;10.05;;;16.40;93.10;;;;;;5012210;28;20044;-68
2021/10/03 01:36:23;;;;;;;14.45;11.07;;;16.40;93.00;;;;;;5012854;28;20088;-69
2021/10/03 01:38:48;;;;;;;16.25;10.45;;;16.40;92.90;;;;;;5013329;28;20034;-67
2021/10/03 01:41:14;;;;;;;13.90;10.10;;;16.30;92.70;;;;;;5010099;28;20528;-68
2021/10/03 01:43:40;;;;;;;13.82;9.43;;;16.40;92.70;;;;;;5005135;28;20125;-68
2021/10/03 01:46:05;;;;;;;14.15;10.00;;;16.40;92.70;;;;;;5012527;28;20045;-69
2021/10/03 01:48:31;;;;;;;14.85;10.25;;;16.40;92.70;;;;;;5008691;28;20027;-67
2021/10/03 01:51:06;;;;;;;15.32;9.77;;;16.40;92.50;;;;;;4993935;28;20494;-68
2021/10/03 01:53:35;;;;;;;13.00;9.70;;;16.40;92.50;;;;;;5005560;28;20030;-67
2021/10/03 01:56:04;;;;;;;12.95;9.13;;;16.40;92.60;;;;;;4993992;28;20053;-67
2021/10/03 01:58:32;;;;;;;15.10;9.77;;;16.40;92.50;;;;;;4996207;28;20509;-67
2021/10/03 02:01:04;;;;;;;13.00;9.80;;;16.30;92.30;;;;;;5013376;28;20109;-68
2021/10/03 02:03:30;;;;;;;12.23;9.48;;;16.40;92.20;;;;;;5005625;28;20041;-67
2021/10/03 02:05:55;;;;;;;13.27;8.82;;;16.40;92.40;;;;;;5013453;28;20034;-67
2021/10/03 02:08:21;;;;;;;15.45;10.52;;;16.40;92.30;;;;;;5021365;28;20474;-68
2021/10/03 02:10:49;;;;;;;14.40;9.48;;;16.30;92.10;;;;;;4996180;28;20018;-67
2021/10/03 02:13:17;;;;;;;13.05;9.75;;;16.30;92.10;;;;;;4996524;28;20383;-68
2021/10/03 02:15:44;;;;;;;12.70;9.18;;;16.30;92.00;;;;;;5012551;28;20494;-67
2021/10/03 02:18:13;;;;;;;11.82;8.80;;;16.40;92.00;;;;;;5011707;28;20060;-67
2021/10/03 02:20:39;;;;;;;14.18;9.13;;;16.30;91.90;;;;;;5006352;28;20038;-68
2021/10/03 02:23:09;;;;;;;12.23;9.35;;;16.30;91.80;;;;;;4996857;28;20026;-67
2021/10/03 02:25:40;;;;;;;16.08;9.35;;;16.30;91.90;;;;;;5010205;28;20033;-68
2021/10/03 02:28:06;;;;;;;11.40;9.23;;;16.30;91.80;;;;;;5011940;28;20049;-68
2021/10/03 02:30:31;;;;;;;12.50;9.73;;;16.30;91.90;;;;;;4995259;28;20034;-68
2021/10/03 02:32:57;;;;;;;12.60;9.10;;;16.30;91.90;;;;;;5006147;28;20466;-68
2021/10/03 02:35:22;;;;;;;13.05;8.40;;;16.30;91.90;;;;;;4997724;28;20045;-69
2021/10/03 02:37:48;;;;;;;11.98;8.90;;;16.20;91.70;;;;;;5004879;28;20045;-68
2021/10/03 02:40:17;;;;;;;13.23;9.18;;;16.20;91.70;;;;;;5012025;28;20119;-68
2021/10/03 02:42:43;;;;;;;13.18;9.20;;;16.20;91.70;;;;;;5003704;28;20031;-68
2021/10/03 02:45:10;;;;;;;14.88;8.57;;;16.20;91.70;;;;;;5003354;28;20057;-68
2021/10/03 02:47:36;;;;;;;10.73;8.32;;;16.20;91.60;;;;;;5006281;28;20026;-68
2021/10/03 02:50:03;;;;;;;11.50;8.50;;;16.20;91.50;;;;;;5002590;28;20035;-68
2021/10/03 02:52:28;;;;;;;12.88;8.55;;;16.20;91.60;;;;;;5002097;28;20034;-68
2021/10/03 02:54:54;;;;;;;10.57;8.15;;;16.20;91.70;;;;;;5010759;28;20481;-68
2021/10/03 02:57:19;;;;;;;12.00;8.68;;;16.20;91.70;;;;;;5010627;28;20106;-69
2021/10/03 02:59:45;;;;;;;15.20;9.63;;;16.20;91.60;;;;;;5010223;28;20153;-68
2021/10/03 03:02:10;;;;;;;13.40;9.10;;;16.20;91.60;;;;;;5008819;28;20525;-68
2021/10/03 03:04:36;;;;;;;10.00;7.68;;;16.20;91.60;;;;;;5008864;28;20033;-68
2021/10/03 03:07:01;;;;;;;13.32;8.65;;;16.20;91.50;;;;;;5005906;28;20079;-68
2021/10/03 03:09:27;;;;;;;11.82;8.63;;;16.20;91.60;;;;;;5011969;28;20079;-68
2021/10/03 03:11:52;;;;;;;13.32;8.48;;;16.20;91.50;;;;;;5005123;28;20025;-68
2021/10/03 03:14:18;;;;;;;10.20;8.43;;;16.20;91.40;;;;;;4999817;28;20410;-68
2021/10/03 03:16:52;;;;;;;12.18;8.70;;;16.20;91.50;;;;;;4995428;28;20049;-68
2021/10/03 03:19:18;;;;;;;10.97;8.47;;;16.20;91.30;;;;;;5010996;28;20048;-68
2021/10/03 03:21:44;;;;;;;10.48;8.10;;;16.20;91.40;;;;;;5009603;28;20041;-68
2021/10/03 03:24:10;;;;;;;13.20;8.98;;;16.20;91.40;;;;;;5008961;28;20053;-68
2021/10/03 03:26:36;;;;;;;12.43;8.40;;;16.20;91.50;;;;;;5010058;28;20026;-68
2021/10/03 03:29:02;;;;;;;12.10;9.00;;;16.20;91.40;;;;;;5002276;28;20042;-68
2021/10/03 03:31:27;;;;;;;11.63;8.93;;;16.20;91.30;;;;;;4993988;28;20532;-68
2021/10/03 03:33:53;;;;;;;14.27;8.05;;;16.20;91.40;;;;;;5011160;28;20042;-68
2021/10/03 03:36:19;;;;;;;12.10;8.55;;;16.20;91.30;;;;;;5010177;28;20486;-68
2021/10/03 03:38:46;;;;;;;11.60;8.20;;;16.20;91.40;;;;;;5010449;28;20390;-68
2021/10/03 03:41:12;;;;;;;11.75;8.55;;;16.20;91.30;;;;;;5011496;28;20105;-68
2021/10/03 03:43:38;;;;;;;13.27;8.65;;;16.20;91.40;;;;;;4997120;28;20092;-68
2021/10/03 03:46:04;;;;;;;12.05;8.57;;;16.20;91.30;;;;;;5008860;28;20030;-68
2021/10/03 03:48:30;;;;;;;10.73;8.52;;;16.20;91.30;;;;;;5006667;28;20061;-68
2021/10/03 03:50:55;;;;;;;12.32;8.07;;;16.20;91.20;;;;;;4992495;28;20031;-68
2021/10/03 03:53:20;;;;;;;11.70;7.72;;;16.20;91.20;;;;;;5006919;28;20029;-68
2021/10/03 03:55:46;;;;;;;12.20;8.95;;;16.20;91.20;;;;;;5010947;28;20073;-69
2021/10/03 03:58:12;;;;;;;10.63;8.43;;;16.20;91.20;;;;;;5010265;28;20084;-68
2021/10/03 04:00:37;;;;;;;14.55;8.07;;;16.20;91.20;;;;;;5011378;28;20117;-69
2021/10/03 04:03:03;;;;;;;13.68;8.65;;;16.30;91.10;;;;;;5008784;28;20034;-69
2021/10/03 04:05:28;;;;;;;11.63;9.23;;;16.30;91.10;;;;;;4994040;28;20085;-69
2021/10/03 04:07:53;;;;;;;11.52;8.50;;;16.30;91.20;;;;;;5004251;28;20033;-68
2021/10/03 04:10:19;;;;;;;14.20;8.02;;;16.30;91.10;;;;;;5008890;28;20481;-68
2021/10/03 04:12:45;;;;;;;11.35;8.13;;;16.30;91.10;;;;;;5003224;28;20081;-67
2021/10/03 04:15:10;;;;;;;12.95;9.13;;;16.30;91.00;;;;;;4998287;28;20498;-68
2021/10/03 04:17:37;;;;;;;11.88;8.43;;;16.30;90.90;;;;;;5009582;28;20098;-68
2021/10/03 04:20:06;;;;;;;12.63;8.43;;;16.30;90.90;;;;;;4999423;28;20031;-68
2021/10/03 04:22:32;;;;;;;10.82;8.60;;;16.30;90.90;;;;;;5001905;28;20026;-68
2021/10/03 04:24:57;;;;;;;10.90;8.20;;;16.30;91.20;;;;;;5009356;28;20034;-67
2021/10/03 04:27:23;;;;;;;12.18;9.15;;;16.30;90.90;;;;;;5012598;28;20069;-68
2021/10/03 04:29:49;;;;;;;11.77;8.75;;;16.30;90.90;;;;;;5006302;28;20023;-67
2021/10/03 04:32:15;;;;;;;11.88;8.27;;;16.30;90.90;;;;;;5002294;28;20470;-68
2021/10/03 04:34:41;;;;;;;13.23;9.57;;;16.30;90.90;;;;;;5014092;28;20037;-68
2021/10/03 04:37:06;;;;;;;12.75;9.30;;;16.30;90.90;;;;;;5005387;28;20084;-67
2021/10/03 04:39:32;;;;;;;10.70;8.63;;;16.20;90.90;;;;;;5007352;28;20417;-67
2021/10/03 04:41:58;;;;;;;12.98;9.15;;;16.20;90.80;;;;;;5013049;28;20525;-67
2021/10/03 04:44:24;;;;;;;10.55;8.55;;;16.20;90.80;;;;;;5008714;28;20098;-67
2021/10/03 04:46:49;;;;;;;10.73;8.10;;;16.20;90.80;;;;;;4995438;28;20484;-67
2021/10/03 04:49:15;;;;;;;13.90;9.25;;;16.20;90.90;;;;;;4995724;28;20034;-68
2021/10/03 04:51:41;;;;;;;10.95;8.95;;;16.20;90.90;;;;;;4994717;28;20084;-68
2021/10/03 04:54:06;;;;;;;13.70;9.23;;;16.20;90.80;;;;;;4993628;28;20038;-67
2021/10/03 04:56:32;;;;;;;11.65;9.30;;;16.20;90.80;;;;;;5009967;28;20120;-68
2021/10/03 04:58:57;;;;;;;11.05;8.50;;;16.20;90.90;;;;;;5014722;28;20018;-68
2021/10/03 05:01:23;;;;;;;11.05;9.38;;;16.20;90.90;;;;;;5011766;28;20034;-68
2021/10/03 05:03:48;;;;;;;11.77;9.80;;;16.20;90.90;;;;;;5013106;28;20030;-67
2021/10/03 05:06:14;;;;;;;12.93;9.43;;;16.20;90.80;;;;;;4998919;28;20050;-69
2021/10/03 05:08:39;;;;;;;12.05;8.75;;;16.20;90.90;;;;;;5014455;28;20112;-67
2021/10/03 05:11:05;;;;;;;12.88;9.02;;;16.20;90.90;;;;;;5013299;28;20352;-68
2021/10/03 05:13:32;;;;;;;12.20;8.63;;;16.20;90.90;;;;;;4995718;28;20022;-69
2021/10/03 05:15:58;;;;;;;11.38;8.75;;;16.20;90.70;;;;;;4998960;28;20101;-69
2021/10/03 05:18:23;;;;;;;13.48;10.20;;;16.20;90.80;;;;;;5003430;28;20117;-68
2021/10/03 05:20:49;;;;;;;9.93;8.27;;;16.30;91.00;;;;;;4994577;28;20019;-69
2021/10/03 05:23:15;;;;;;;12.50;9.23;;;16.30;90.80;;;;;;5009486;28;20021;-70
2021/10/03 05:25:41;;;;;;;13.32;10.15;;;16.30;90.80;;;;;;5013810;28;20072;-68
2021/10/03 05:28:06;;;;;;;12.38;10.05;;;16.30;90.70;;;;;;5011170;28;20033;-67
2021/10/03 05:30:32;;;;;;;12.40;9.45;;;16.30;90.70;;;;;;5014352;28;20069;-67
2021/10/03 05:32:57;;;;;;;12.60;9.07;;;16.40;90.80;;;;;;5011563;28;20026;-68
2021/10/03 05:35:23;;;;;;;15.48;9.77;;;16.30;90.90;;;;;;5007662;28;20027;-67
2021/10/03 05:37:49;;;;;;;14.25;9.02;;;16.40;90.70;;;;;;5005674;28;20104;-68
2021/10/03 05:40:15;;;;;;;13.50;9.48;;;16.40;91.00;;;;;;4993193;28;20117;-68
2021/10/03 05:42:41;;;;;;;13.50;10.02;;;16.40;90.70;;;;;;5004647;28;20033;-67
2021/10/03 05:45:08;;;;;;;12.70;9.20;;;16.40;90.70;;;;;;5005643;28;20038;-67
2021/10/03 05:47:33;;;;;;;13.45;8.77;;;16.40;90.80;;;;;;4994648;28;20064;-68
2021/10/03 05:49:59;;;;;;;13.45;9.05;;;16.40;90.70;;;;;;5003908;28;20053;-69
2021/10/03 05:52:24;;;;;;;12.93;9.50;;;16.40;90.60;;;;;;5006664;28;20105;-69
2021/10/03 05:54:50;;;;;;;11.73;9.15;;;16.40;90.80;;;;;;5002334;28;20080;-68
2021/10/03 05:57:16;;;;;;;16.10;9.70;;;16.40;90.80;;;;;;5010726;28;20022;-68
2021/10/03 05:59:41;;;;;;;13.35;9.68;;;16.50;90.70;;;;;;5006239;28;20026;-68
2021/10/03 06:02:07;;;;;;;10.52;8.65;;;16.50;90.70;;;;;;5008395;28;20053;-69
2021/10/03 06:04:32;;;;;;;13.05;8.88;;;16.50;90.90;;;;;;5002086;28;20038;-70
2021/10/03 06:06:58;;;;;;;12.40;9.05;;;16.60;91.40;;;;;;5004791;28;20113;-70
2021/10/03 06:09:24;;;;;;;11.65;9.35;;;16.80;91.20;;;;;;5010297;28;20382;-68
2021/10/03 06:11:49;;;;;;;10.68;8.52;;;17.00;91.40;;;;;;5009239;28;20040;-69
2021/10/03 06:14:15;;;;;;;11.48;9.73;;;17.20;91.20;;;;;;5005706;28;20072;-69
2021/10/03 06:16:42;;;;;;;12.63;8.77;;;17.30;90.90;;;;;;4996529;28;20064;-69
2021/10/03 06:19:09;;;;;;;16.23;9.57;;;17.30;90.80;;;;;;4998344;28;20021;-69
2021/10/03 06:21:34;;;;;;;12.48;9.27;;;17.30;90.70;;;;;;5001690;28;20403;-69
2021/10/03 06:24:00;;;;;;;13.45;8.93;;;17.40;90.60;;;;;;5001351;28;20042;-69
2021/10/03 06:26:26;;;;;;;12.75;9.48;;;17.40;90.60;;;;;;5008486;28;20524;-69
2021/10/03 06:28:51;;;;;;;12.20;9.00;;;17.50;90.30;;;;;;5008389;28;20186;-69
2021/10/03 06:31:17;;;;;;;11.50;9.18;;;17.60;90.30;;;;;;5008658;28;20026;-70
2021/10/03 06:33:42;;;;;;;11.82;8.68;;;17.70;90.20;;;;;;5005481;28;20030;-70
2021/10/03 06:36:08;;;;;;;12.07;10.10;;;17.80;89.70;;;;;;4997086;28;20026;-70
2021/10/03 06:38:34;;;;;;;12.98;8.68;;;17.90;89.10;;;;;;5000060;28;20027;-70
2021/10/03 06:40:59;;;;;;;14.43;9.93;;;17.90;89.20;;;;;;4999020;28;20483;-70
2021/10/03 06:43:25;;;;;;;11.85;8.60;;;18.00;88.70;;;;;;5008660;28;20030;-69
2021/10/03 06:45:50;;;;;;;11.55;9.27;;;18.00;88.60;;;;;;5010685;28;20036;-69
2021/10/03 06:48:16;;;;;;;11.90;9.13;;;18.10;88.40;;;;;;5005843;28;20033;-70
2021/10/03 06:50:42;;;;;;;11.68;8.57;;;18.20;88.20;;;;;;5004307;28;20157;-69
2021/10/03 06:53:07;;;;;;;12.90;9.63;;;18.20;88.00;;;;;;5002738;28;20034;-70
2021/10/03 06:55:33;;;;;;;14.30;9.63;;;18.30;87.80;;;;;;5002478;28;20107;-69
2021/10/03 06:58:01;;;;;;;11.93;8.60;;;18.30;88.00;;;;;;5004177;28;20497;-70
2021/10/03 07:00:27;;;;;;;12.43;9.20;;;18.30;87.50;;;;;;5009419;28;20034;-69
2021/10/03 07:02:52;;;;;;;9.80;7.93;;;18.30;87.60;;;;;;5001726;28;20528;-70
2021/10/03 07:05:18;;;;;;;12.65;9.07;;;18.30;87.60;;;;;;4999921;28;20031;-70
2021/10/03 07:07:44;;;;;;;12.40;9.52;;;18.40;87.30;;;;;;5008745;28;20026;-70
2021/10/03 07:10:09;;;;;;;11.35;9.43;;;18.50;86.90;;;;;;5003094;28;20506;-70
2021/10/03 07:12:38;;;;;;;11.43;9.15;;;18.50;86.30;;;;;;5005132;28;20026;-70
2021/10/03 07:15:04;;;;;;;12.77;9.10;;;18.50;86.80;;;;;;5005461;28;20026;-70
2021/10/03 07:17:29;;;;;;;11.52;8.98;;;18.50;86.10;;;;;;5002980;28;20138;-71
2021/10/03 07:19:55;;;;;;;11.07;8.55;;;18.60;86.00;;;;;;5010090;28;20040;-72
2021/10/03 07:22:20;;;;;;;12.23;8.32;;;18.60;86.20;;;;;;5001048;28;20021;-70
2021/10/03 07:24:46;;;;;;;12.20;9.23;;;18.60;85.90;;;;;;5009710;28;20042;-70
2021/10/03 07:27:12;;;;;;;11.38;9.00;;;18.60;86.00;;;;;;5003640;28;20026;-70
2021/10/03 07:29:37;;;;;;;10.93;9.25;;;18.60;85.90;;;;;;5007864;28;20030;-70
2021/10/03 07:32:06;;;;;;;12.68;9.20;;;18.70;85.70;;;;;;5008054;28;20033;-70
2021/10/03 07:34:33;;;;;;;13.13;9.52;;;18.60;85.20;;;;;;5005434;28;20061;-70
2021/10/03 07:36:58;;;;;;;12.07;9.32;;;18.70;85.40;;;;;;5004453;28;20030;-70
2021/10/03 07:39:24;;;;;;;10.90;8.77;;;18.70;85.30;;;;;;4992470;28;20541;-70
2021/10/03 07:41:51;;;;;;;12.13;8.70;;;18.80;85.20;;;;;;5008940;28;20049;-71
2021/10/03 07:44:16;;;;;;;13.38;8.45;;;18.70;85.00;;;;;;5010559;28;20049;-70
2021/10/03 07:46:42;;;;;;;12.38;9.57;;;18.70;85.10;;;;;;5005319;28;20026;-70
2021/10/03 07:49:07;;;;;;;11.32;8.32;;;18.70;85.30;;;;;;4992327;28;20182;-70
2021/10/03 07:51:33;;;;;;;11.35;9.40;;;18.80;84.80;;;;;;4994190;28;20100;-70
2021/10/03 07:53:59;;;;;;;11.38;8.98;;;18.80;85.10;;;;;;5006484;28;20441;-70
2021/10/03 07:56:24;;;;;;;12.88;8.43;;;18.80;85.10;;;;;;5007320;28;20030;-70
2021/10/03 07:58:50;;;;;;;11.70;9.40;;;18.80;85.00;;;;;;5011863;28;20128;-70
2021/10/03 08:01:16;;;;;;;10.95;8.95;;;18.90;84.40;;;;;;5011440;28;20022;-70
2021/10/03 08:03:44;;;;;;;11.90;9.20;;;18.90;84.20;;;;;;5015736;28;20034;-70
2021/10/03 08:06:10;;;;;;;17.15;9.35;;;18.90;84.10;;;;;;5002772;28;20030;-70
2021/10/03 08:08:35;;;;;;;11.73;8.68;;;19.00;84.20;;;;;;5004360;28;20098;-70
2021/10/03 08:11:01;;;;;;;11.70;8.98;;;19.00;84.10;;;;;;4996090;28;20038;-69
2021/10/03 08:13:26;;;;;;;22.35;10.93;;;19.00;84.20;;;;;;5013267;28;20030;-70
2021/10/03 08:15:52;;;;;;;14.55;9.13;;;19.00;85.10;;;;;;5012032;28;20030;-72
2021/10/03 08:18:17;;;;;;;13.13;8.48;;;19.00;85.10;;;;;;5009169;28;20359;-69
2021/10/03 08:20:43;;;;;;;11.57;9.27;;;19.00;85.50;;;;;;5006742;28;20404;-70
2021/10/03 08:23:09;;;;;;;12.98;10.07;;;19.00;84.80;;;;;;4998321;28;20034;-71
2021/10/03 08:25:35;;;;;;;11.88;8.73;;;19.10;84.50;;;;;;5007081;28;20037;-70
2021/10/03 08:28:00;;;;;;;11.63;9.25;;;19.10;84.90;;;;;;5013099;28;20036;-70
2021/10/03 08:30:26;;;;;;;12.57;8.70;;;19.10;84.70;;;;;;5005341;28;20033;-70
2021/10/03 08:32:52;;;;;;;13.80;8.95;;;19.10;85.20;;;;;;5008144;28;20033;-70
2021/10/03 08:35:17;;;;;;;14.35;8.57;;;19.00;84.70;;;;;;4995391;28;20034;-69
2021/10/03 08:37:44;;;;;;;10.32;8.73;;;19.00;84.90;;;;;;5006627;28;20026;-70
2021/10/03 08:40:11;;;;;;;13.15;8.85;;;19.10;84.70;;;;;;5004779;28;20089;-70
2021/10/03 08:42:38;;;;;;;13.25;9.30;;;19.10;84.50;;;;;;5009732;28;20030;-70
2021/10/03 08:45:05;;;;;;;9.68;8.25;;;19.20;84.00;;;;;;5002083;28;20105;-70
2021/10/03 08:47:31;;;;;;;10.65;8.65;;;19.20;83.70;;;;;;5007413;28;20101;-70
2021/10/03 08:49:57;;;;;;;11.27;8.27;;;19.20;83.70;;;;;;5004160;28;20026;-70
2021/10/03 08:52:24;;;;;;;10.80;9.05;;;19.30;83.90;;;;;;5004914;28;20527;-70
2021/10/03 08:54:49;;;;;;;11.93;9.15;;;19.30;84.00;;;;;;5007487;28;20526;-70
2021/10/03 08:57:15;;;;;;;12.43;8.30;;;19.30;84.10;;;;;;4999955;28;20057;-70
2021/10/03 09:00:10;;;;;;;11.45;8.10;;;19.40;83.80;;;;;;5005830;28;20041;-70
2021/10/03 09:02:54;;;;;;;11.65;8.15;;;19.40;83.90;;;;;;5010327;28;20064;-70
2021/10/03 09:05:20;;;;;;;13.52;9.07;;;19.50;84.00;;;;;;5009663;28;20073;-69
2021/10/03 09:08:05;;;;;;;10.75;7.75;;;19.40;84.60;;;;;;5009949;28;20026;-69
2021/10/03 09:11:05;;;;;;;12.63;8.07;;;19.60;84.10;;;;;;5010120;28;20085;-69
2021/10/03 09:13:30;;;;;;;11.20;9.25;;;19.60;82.30;;;;;;5013438;28;20025;-73
2021/10/03 09:16:21;;;;;;;12.65;8.63;;;19.60;83.50;;;;;;5004606;28;20026;-74
2021/10/03 09:18:57;;;;;;;10.10;7.95;;;19.60;83.20;;;;;;4995327;28;20039;-74
2021/10/03 09:21:28;;;;;;;11.23;8.20;;;19.70;83.40;;;;;;5000160;28;20033;-73
2021/10/03 09:23:57;;;;;;;13.15;9.32;;;19.80;84.40;;;;;;5004078;28;20061;-72
2021/10/03 09:26:23;;;;;;;12.43;8.43;;;19.80;83.70;;;;;;4999350;28;20021;-73
2021/10/03 09:28:49;;;;;;;14.57;8.48;;;19.80;83.40;;;;;;5000995;28;20087;-72
2021/10/03 09:31:17;;;;;;;13.23;9.00;;;19.90;83.30;;;;;;5006592;28;20065;-70
2021/10/03 09:33:51;;;;;;;10.70;8.32;;;20.00;82.90;;;;;;4999524;28;20038;-71
2021/10/03 09:36:29;;;;;;;8.88;7.43;;;20.00;83.70;;;;;;4997989;28;20109;-71
2021/10/03 09:39:00;;;;;;;11.18;8.57;;;20.00;83.10;;;;;;5006899;28;20100;-71
2021/10/03 09:41:41;;;;;;;11.15;8.27;;;20.00;83.30;;;;;;5009967;28;20057;-74
2021/10/03 09:44:13;;;;;;;11.30;7.35;;;20.10;81.80;;;;;;5005978;28;20046;-70
2021/10/03 09:46:50;;;;;;;14.30;8.13;;;20.10;82.80;;;;;;5004124;28;20027;-72
2021/10/03 09:49:28;;;;;;;9.95;7.95;;;20.10;81.60;;;;;;4997402;28;20026;-71
2021/10/03 09:51:55;;;;;;;11.68;8.20;;;20.20;82.90;;;;;;5006575;28;20096;-72
2021/10/03 09:54:23;;;;;;;11.60;8.90;;;20.30;82.80;;;;;;4973593;28;1002295;-71
2021/10/03 09:56:50;;;;;;;15.18;10.80;;;20.30;83.00;;;;;;5005444;28;20022;-70
2021/10/03 09:59:17;;;;;;;48.05;33.95;;;20.40;82.80;;;;;;4999827;28;20058;-68
2021/10/03 10:01:45;;;;;;;46.65;29.83;;;20.40;81.80;;;;;;5009200;28;20041;-69
2021/10/03 10:04:13;;;;;;;26.20;19.20;;;20.50;82.30;;;;;;5001186;28;20502;-70
2021/10/03 10:06:38;;;;;;;33.10;22.75;;;20.60;82.30;;;;;;5001718;28;20386;-71
2021/10/03 10:09:06;;;;;;;20.90;13.80;;;20.70;81.90;;;;;;4997442;28;20030;-70
2021/10/03 10:11:38;;;;;;;33.10;20.30;;;20.70;82.10;;;;;;4995800;28;20075;-71
2021/10/03 10:14:04;;;;;;;21.05;15.85;;;20.70;81.10;;;;;;4997285;28;20073;-71
2021/10/03 10:16:33;;;;;;;21.40;14.32;;;20.70;80.60;;;;;;4994927;28;20065;-71
2021/10/03 10:19:32;;;;;;;13.68;11.98;;;20.80;80.40;;;;;;5012353;28;20057;-71
2021/10/03 10:22:15;;;;;;;13.07;8.35;;;20.80;80.40;;;;;;5011018;28;20026;-71
2021/10/03 10:24:44;;;;;;;13.13;9.40;;;20.90;81.20;;;;;;5012070;28;20407;-71
2021/10/03 10:27:29;;;;;;;12.88;10.00;;;21.00;81.20;;;;;;5010165;28;20022;-71
2021/10/03 10:30:00;;;;;;;12.93;10.02;;;21.10;80.80;;;;;;5000894;28;20025;-71
2021/10/03 10:32:32;;;;;;;10.68;8.35;;;21.10;81.20;;;;;;5013464;28;20026;-70
2021/10/03 10:35:12;;;;;;;12.45;8.68;;;21.20;80.60;;;;;;5002640;28;20022;-70
2021/10/03 10:37:49;;;;;;;11.68;8.93;;;21.20;79.30;;;;;;5006207;28;20041;-71
2021/10/03 10:40:21;;;;;;;;;;;21.20;79.40;;;;;;5006697;28;20541;-72
2021/10/03 10:42:47;;;;;;;14.73;8.82;;;21.30;79.30;;;;;;4997711;28;19917;-72
2021/10/03 10:45:28;;;;;;;12.02;8.68;;;21.30;79.60;;;;;;5005055;28;20137;-71
2021/10/03 10:48:09;;;;;;;11.73;7.53;;;21.30;78.80;;;;;;5007129;28;20034;-72
2021/10/03 10:50:42;;;;;;;11.02;8.32;;;21.40;79.10;;;;;;4994717;28;20041;-70
2021/10/03 10:53:39;;;;;;;8.27;7.07;;;21.40;79.10;;;;;;5003736;28;20038;-71
2021/10/03 10:56:08;;;;;;;9.70;7.57;;;21.50;79.10;;;;;;5005450;28;20120;-70
2021/10/03 10:58:58;;;;;;;10.88;7.53;;;21.60;78.60;;;;;;5011635;28;20033;-68
2021/10/03 11:01:29;;;;;;;12.27;8.63;;;21.70;78.50;;;;;;5006867;28;20037;-72
2021/10/03 11:03:59;;;;;;;10.90;7.10;;;21.70;79.50;;;;;;5000455;28;20041;-70
2021/10/03 11:06:27;;;;;;;8.98;7.15;;;21.80;79.70;;;;;;5012123;28;20033;-71
2021/10/03 11:09:14;;;;;;;11.52;9.13;;;21.80;78.50;;;;;;5010803;28;20387;-71
2021/10/03 11:11:57;;;;;;;12.90;7.68;;;21.90;78.50;;;;;;5003128;28;20113;-71
2021/10/03 11:14:26;;;;;;;9.50;6.88;;;21.90;78.00;;;;;;5011071;28;20048;-70
2021/10/03 11:17:03;;;;;;;9.63;7.85;;;22.00;78.70;;;;;;4995313;28;20040;-71
2021/10/03 11:19:33;;;;;;;11.23;8.05;;;22.00;77.60;;;;;;5019000;28;20114;-69
2021/10/03 11:22:06;;;;;;;8.63;6.72;;;22.10;77.60;;;;;;5005600;28;20029;-71
2021/10/03 11:24:39;;;;;;;12.60;7.55;;;22.20;77.60;;;;;;4997663;28;20111;-71
2021/10/03 11:27:14;;;;;;;8.20;6.45;;;22.20;77.10;;;;;;5008932;28;20030;-71
2021/10/03 11:29:51;;;;;;;9.27;6.72;;;22.20;76.60;;;;;;5007407;28;20061;-71
2021/10/03 11:32:18;;;;;;;9.27;6.60;;;22.20;76.30;;;;;;5009837;28;20100;-72
2021/10/03 11:34:50;;;;;;;8.85;6.97;;;22.30;76.60;;;;;;5010545;28;20494;-71
2021/10/03 11:37:21;;;;;;;7.85;6.30;;;22.40;76.30;;;;;;4992511;28;20034;-72
2021/10/03 11:40:07;;;;;;;8.88;6.35;;;22.50;76.20;;;;;;5006160;28;20022;-71
2021/10/03 11:42:37;;;;;;;7.38;6.15;;;22.60;75.90;;;;;;5002436;28;20038;-72
2021/10/03 11:45:22;;;;;;;9.77;6.53;;;22.60;75.30;;;;;;5010338;28;20478;-72
2021/10/03 11:47:55;;;;;;;26.23;8.35;;;22.60;75.60;;;;;;4995346;28;20403;-71
2021/10/03 11:50:30;;;;;;;31.35;8.60;;;22.60;75.20;;;;;;5006161;28;20068;-72
2021/10/03 11:53:19;;;;;;;11.35;7.18;;;22.60;75.20;;;;;;4999484;28;20603;-73
2021/10/03 11:55:46;;;;;;;14.02;7.40;;;22.60;75.00;;;;;;4999127;28;20042;-73
2021/10/03 11:58:16;;;;;;;10.48;6.75;;;22.70;74.80;;;;;;5006572;28;20394;-73
2021/10/03 12:00:52;;;;;;;11.45;6.95;;;22.70;74.10;;;;;;5011704;28;20037;-73
2021/10/03 12:03:20;;;;;;;8.95;6.65;;;22.70;73.30;;;;;;5009276;28;20383;-73
2021/10/03 12:05:46;;;;;;;12.60;7.70;;;22.70;73.90;;;;;;5011311;28;20065;-73
2021/10/03 12:08:16;;;;;;;8.77;6.65;;;22.60;73.00;;;;;;5008418;28;20537;-73
2021/10/03 12:10:47;;;;;;;11.32;6.70;;;22.60;73.00;;;;;;5006509;28;20026;-73
2021/10/03 12:13:19;;;;;;;9.32;6.65;;;22.60;73.10;;;;;;5001353;28;20437;-73
2021/10/03 12:16:12;;;;;;;9.25;6.97;;;22.60;72.90;;;;;;4999632;28;20416;-74
2021/10/03 12:18:42;;;;;;;9.55;6.90;;;22.70;72.60;;;;;;5001979;28;20487;-74
2021/10/03 12:21:11;;;;;;;9.65;6.80;;;22.70;73.30;;;;;;5006216;28;20034;-72
2021/10/03 12:23:53;;;;;;;10.18;6.78;;;22.70;73.60;;;;;;5003725;28;20470;-72
2021/10/03 12:26:36;;;;;;;10.10;6.55;;;22.80;73.60;;;;;;4998839;28;20088;-73
2021/10/03 12:29:13;;;;;;;10.23;6.45;;;22.90;72.00;;;;;;5005775;28;20586;-73
2021/10/03 12:31:51;;;;;;;10.07;6.55;;;22.90;71.90;;;;;;5004697;28;20081;-73
2021/10/03 12:34:17;;;;;;;9.00;6.68;;;22.90;72.00;;;;;;5007248;28;20509;-73
2021/10/03 12:36:54;;;;;;;9.88;6.30;;;23.00;72.80;;;;;;5001935;28;20026;-73
2021/10/03 12:39:21;;;;;;;9.90;6.40;;;23.10;73.00;;;;;;4999871;28;20484;-73
2021/10/03 12:41:48;;;;;;;7.60;6.32;;;23.20;72.30;;;;;;4997535;28;20033;-73